AirNav   Pilot Hours Calculator
 
 366 users online  

LS81 Lake Charles Office Heliport
Lake Charles, Louisiana, USA

GOING TO LAKE CHARLES?


FAA INFORMATION EFFECTIVE 08 SEPTEMBER 2022

Location

FAA Identifier: LS81
Lat/Long: 30-06-51.7520N 093-12-43.5520W
30-06.862533N 093-12.725867W
30.1143756,-93.2120978
(estimated)
Elevation: 15 ft. / 5 m (estimated)
Variation: 05E (1985)
From city: 2 miles SE of LAKE CHARLES, LA
Time zone: UTC -5 (UTC -6 during Standard Time)
Zip code: 70607

Heliport Operations

Heliport use: Private use. Permission required prior to landing
Activation date: 03/1991
Control tower: no
ARTCC: HOUSTON CENTER
FSS: DE RIDDER FLIGHT SERVICE STATION
Attendance: UNATNDD
Segmented circle: no

Heliport Communications

WX ASOS at LCH (0.9 nm NW): PHONE 337-477-3371
WX AWOS-3 at CWF (7 nm NE): 120.0 (337-436-3452)
WX AWOS-3PT at UXL (9 nm W): 118.175 (337-558-5321)

Nearby radio navigation aids

VOR radial/distance  VOR name  Freq  Var
LCHr247/5.8LAKE CHARLES VORTAC113.4007E

 
NDB name  Hdg/Dist  Freq  Var  ID
MOSSY180/11.641804ECW -.-. .--
SULPHUR111/11.927804EAUR .- ..- .-.
DE RIDDER167/38.838504EDXB -.. -..- -...

Heliport Services

Runway Information

Helipad H1

Dimensions: 25 x 25 ft. / 8 x 8 m
Surface: concrete
Traffic pattern: leftleft

Heliport Ownership and Management from official FAA records

Ownership: Privately-owned
Owner: TENNESSEE GAS PIPELINE CO.
1115 REGAL ROW
HOUMA, LA 70360
Phone 504-868-6785
SUGAR MILL POINT.
Manager: K. J. CHERAMIE
1115 REGAL ROW
HOUMA, LA 70360
Phone 504-868-6785
SUGAR MILL POINT.

Additional Remarks

A52-H1 128 FT TOWER 3/4 MILE NNW OF HELIPAD.
FOR CD CTC LAKE CHARLES APCH AT 337-480-3103, WHEN APCH CLSD CTC HOUSTON ARTCC AT 281-230-5622.

Instrument Procedures

There are no published instrument procedures at LS81.

Some nearby airports with instrument procedures:

KLCH - Lake Charles Regional Airport (1 nm NW)
KCWF - Chennault International Airport (7 nm NE)
KUXL - Southland Field Airport (9 nm W)
6R1 - Welsh Airport (21 nm E)
5R8 - De Quincy Industrial Airpark (24 nm NW)
 
Loc | Ops | Rwys | IFR | FBO | Links
Com | Nav | Svcs | Stats | Notes
Area around LS81 (Lake Charles Office Heliport)
 
Road maps at: MapQuest Bing Google
 
Aerial photo
No photo
 
Sectional chart

 
Airport distance calculator
Flying to Lake Charles Office Heliport? Find the distance to fly.

From to LS81

Sunrise and sunset
Times for 02-Oct-2022
 Local
(UTC-5)
 Zulu
(UTC)
Morning civil twilight06:4411:44
Sunrise07:0812:08
Sunset18:5723:57
Evening civil twilight19:2100:21

Current date and time
Zulu (UTC)  02-Oct-2022 09:17:31
Local (UTC-5)  02-Oct-2022 04:17:31
 
METAR
KLCH 020853Z AUTO 02005KT 10SM CLR 13/08 A3006 RMK AO2 SLP187 T01330083 50002
KCWF 
7nm NE 
020855Z AUTO 02005KT 10SM CLR 15/09 A3006 RMK AO2 T01480087
KUXL 
9nm W 
020855Z AUTO 00000KT 10SM CLR 12/08 A3008 RMK AO2 T01200079
TAF
KLCH 020520Z 0206/0306 VRB04KT P6SM SKC FM021500 04007KT P6SM SKC FM030100 VRB03KT P6SM SKC
NOTAMs
Click for the latest NOTAMs
NOTAMs are issued by the DoD/FAA and will open in a separate window not controlled by AirNav.

 

 
 

Would you like to see your business listed on this page?

 If your business provides an interesting product or service to pilots, flight crews, aircraft, or users of the Lake Charles Office Heliport, you should consider listing it here.  To start the listing process, click on the button below
 
Add a business
 

Other Pages about Lake Charles Office Heliport

Update a link
 
Copyright © AirNav, LLC. All rights reserved. Privacy Policy  Contact